sensor_id;sensor_type;location;lat;lon;timestamp;pressure;altitude;pressure_sealevel;temperature;humidity
61119;BME280;51448;51.660;5.824;2024-01-30T00:01:25;102583.84;;;8.01;97.28
61119;BME280;51448;51.660;5.824;2024-01-30T00:03:55;102583.28;;;7.99;97.37
61119;BME280;51448;51.660;5.824;2024-01-30T00:06:25;102589.28;;;7.96;97.35
61119;BME280;51448;51.660;5.824;2024-01-30T00:08:52;102583.22;;;7.94;97.50
61119;BME280;51448;51.660;5.824;2024-01-30T00:11:20;102577.41;;;7.90;97.55
61119;BME280;51448;51.660;5.824;2024-01-30T00:13:48;102586.50;;;7.91;97.38
61119;BME280;51448;51.660;5.824;2024-01-30T00:16:23;102585.09;;;7.88;97.49
61119;BME280;51448;51.660;5.824;2024-01-30T00:18:57;102580.09;;;7.85;97.33
61119;BME280;51448;51.660;5.824;2024-01-30T00:21:25;102580.38;;;7.84;97.28
61119;BME280;51448;51.660;5.824;2024-01-30T00:23:53;102578.41;;;7.79;97.62
61119;BME280;51448;51.660;5.824;2024-01-30T00:26:23;102583.56;;;7.76;97.28
61119;BME280;51448;51.660;5.824;2024-01-30T00:28:50;102576.69;;;7.73;97.74
61119;BME280;51448;51.660;5.824;2024-01-30T00:31:18;102586.03;;;7.72;97.57
61119;BME280;51448;51.660;5.824;2024-01-30T00:33:47;102582.69;;;7.70;97.55
61119;BME280;51448;51.660;5.824;2024-01-30T00:36:15;102576.03;;;7.66;97.66
61119;BME280;51448;51.660;5.824;2024-01-30T00:38:42;102569.97;;;7.64;97.57
61119;BME280;51448;51.660;5.824;2024-01-30T00:41:11;102583.38;;;7.60;97.78
61119;BME280;51448;51.660;5.824;2024-01-30T00:43:39;102571.56;;;7.60;97.55
61119;BME280;51448;51.660;5.824;2024-01-30T00:46:07;102568.81;;;7.60;97.86
61119;BME280;51448;51.660;5.824;2024-01-30T00:48:35;102568.25;;;7.58;97.65
61119;BME280;51448;51.660;5.824;2024-01-30T00:51:04;102573.19;;;7.56;97.61
61119;BME280;51448;51.660;5.824;2024-01-30T00:53:32;102569.03;;;7.53;97.53
61119;BME280;51448;51.660;5.824;2024-01-30T00:55:59;102564.88;;;7.51;97.90
61119;BME280;51448;51.660;5.824;2024-01-30T00:58:27;102567.63;;;7.51;97.92
61119;BME280;51448;51.660;5.824;2024-01-30T01:00:55;102564.88;;;7.51;97.92
61119;BME280;51448;51.660;5.824;2024-01-30T01:03:23;102562.97;;;7.51;98.25
61119;BME280;51448;51.660;5.824;2024-01-30T01:05:51;102569.28;;;7.52;97.89
61119;BME280;51448;51.660;5.824;2024-01-30T01:08:19;102570.38;;;7.51;97.94
61119;BME280;51448;51.660;5.824;2024-01-30T01:10:48;102567.88;;;7.49;98.19
61119;BME280;51448;51.660;5.824;2024-01-30T01:13:16;102570.38;;;7.51;98.10
61119;BME280;51448;51.660;5.824;2024-01-30T01:15:44;102557.72;;;7.50;98.20
61119;BME280;51448;51.660;5.824;2024-01-30T01:18:17;102556.66;;;7.51;97.69
61119;BME280;51448;51.660;5.824;2024-01-30T01:20:45;102561.06;;;7.52;97.67
61119;BME280;51448;51.660;5.824;2024-01-30T01:23:13;102556.66;;;7.51;97.76
61119;BME280;51448;51.660;5.824;2024-01-30T01:25:46;102560.47;;;7.50;97.68
61119;BME280;51448;51.660;5.824;2024-01-30T01:28:14;102556.88;;;7.49;97.67
61119;BME280;51448;51.660;5.824;2024-01-30T01:30:41;102552.75;;;7.47;97.76
61119;BME280;51448;51.660;5.824;2024-01-30T01:33:10;102542.25;;;7.44;97.41
61119;BME280;51448;51.660;5.824;2024-01-30T01:35:40;102545.53;;;7.41;97.36
61119;BME280;51448;51.660;5.824;2024-01-30T01:38:08;102541.06;;;7.34;97.45
61119;BME280;51448;51.660;5.824;2024-01-30T01:40:39;102540.47;;;7.32;97.61
61119;BME280;51448;51.660;5.824;2024-01-30T01:43:07;102541.84;;;7.30;97.51
61119;BME280;51448;51.660;5.824;2024-01-30T01:45:34;102533.81;;;7.28;97.76
61119;BME280;51448;51.660;5.824;2024-01-30T01:48:02;102527.78;;;7.26;97.72
61119;BME280;51448;51.660;5.824;2024-01-30T01:50:30;102537.66;;;7.27;97.73
61119;BME280;51448;51.660;5.824;2024-01-30T01:52:58;102537.66;;;7.27;97.96
61119;BME280;51448;51.660;5.824;2024-01-30T01:55:26;102533.81;;;7.28;97.75
61119;BME280;51448;51.660;5.824;2024-01-30T01:57:56;102527.78;;;7.26;97.88
61119;BME280;51448;51.660;5.824;2024-01-30T02:00:24;102533.00;;;7.28;97.90
61119;BME280;51448;51.660;5.824;2024-01-30T02:02:52;102533.81;;;7.28;98.00
61119;BME280;51448;51.660;5.824;2024-01-30T02:05:22;102524.75;;;7.28;97.75
61119;BME280;51448;51.660;5.824;2024-01-30T02:07:50;102529.19;;;7.29;97.54
61119;BME280;51448;51.660;5.824;2024-01-30T02:10:18;102521.19;;;7.27;97.88
61119;BME280;51448;51.660;5.824;2024-01-30T02:12:46;102523.38;;;7.25;98.14
61119;BME280;51448;51.660;5.824;2024-01-30T02:15:14;102524.19;;;7.26;98.19
61119;BME280;51448;51.660;5.824;2024-01-30T02:17:42;102530.53;;;7.26;98.12
61119;BME280;51448;51.660;5.824;2024-01-30T02:20:10;102533.28;;;7.26;98.11
61119;BME280;51448;51.660;5.824;2024-01-30T02:22:39;102528.09;;;7.30;98.31
61119;BME280;51448;51.660;5.824;2024-01-30T02:25:08;102524.00;;;7.32;98.02
61119;BME280;51448;51.660;5.824;2024-01-30T02:27:36;102530.91;;;7.35;98.16
61119;BME280;51448;51.660;5.824;2024-01-30T02:30:04;102522.97;;;7.38;98.09
61119;BME280;51448;51.660;5.824;2024-01-30T02:32:32;102515.81;;;7.37;98.37
61119;BME280;51448;51.660;5.824;2024-01-30T02:35:00;102512.25;;;7.37;98.33
61119;BME280;51448;51.660;5.824;2024-01-30T02:37:28;102520.22;;;7.38;98.35
61119;BME280;51448;51.660;5.824;2024-01-30T02:39:56;102516.66;;;7.38;98.35
61119;BME280;51448;51.660;5.824;2024-01-30T02:42:23;102512.00;;;7.38;98.52
61119;BME280;51448;51.660;5.824;2024-01-30T02:44:51;102515.31;;;7.41;98.32
61119;BME280;51448;51.660;5.824;2024-01-30T02:47:19;102502.16;;;7.43;98.34
61119;BME280;51448;51.660;5.824;2024-01-30T02:49:46;102506.56;;;7.44;98.02
61119;BME280;51448;51.660;5.824;2024-01-30T02:52:14;102513.47;;;7.46;98.24
61119;BME280;51448;51.660;5.824;2024-01-30T02:54:42;102508.78;;;7.47;98.19
61119;BME280;51448;51.660;5.824;2024-01-30T02:57:09;102507.97;;;7.46;98.00
61119;BME280;51448;51.660;5.824;2024-01-30T02:59:37;102506.31;;;7.45;98.43
61119;BME280;51448;51.660;5.824;2024-01-30T03:02:05;102496.94;;;7.41;98.50
61119;BME280;51448;51.660;5.824;2024-01-30T03:04:32;102496.66;;;7.43;98.65
61119;BME280;51448;51.660;5.824;2024-01-30T03:07:00;102497.47;;;7.43;98.56
61119;BME280;51448;51.660;5.824;2024-01-30T03:09:28;102493.41;;;7.46;98.25
61119;BME280;51448;51.660;5.824;2024-01-30T03:11:56;102492.06;;;7.48;98.50
61119;BME280;51448;51.660;5.824;2024-01-30T03:14:23;102497.81;;;7.47;98.57
61119;BME280;51448;51.660;5.824;2024-01-30T03:16:51;102492.59;;;7.45;98.60
61119;BME280;51448;51.660;5.824;2024-01-30T03:19:29;102490.13;;;7.49;98.36
61119;BME280;51448;51.660;5.824;2024-01-30T03:22:01;102498.31;;;7.44;98.38
61119;BME280;51448;51.660;5.824;2024-01-30T03:24:41;102490.91;;;7.44;98.54
61119;BME280;51448;51.660;5.824;2024-01-30T03:27:09;102483.25;;;7.46;98.76
61119;BME280;51448;51.660;5.824;2024-01-30T03:29:38;102481.34;;;7.47;98.69
61119;BME280;51448;51.660;5.824;2024-01-30T03:32:08;102485.22;;;7.51;98.69
61119;BME280;51448;51.660;5.824;2024-01-30T03:34:38;102469.81;;;7.50;98.77
61119;BME280;51448;51.660;5.824;2024-01-30T03:37:05;102473.66;;;7.49;98.73
61119;BME280;51448;51.660;5.824;2024-01-30T03:39:34;102468.16;;;7.49;98.77
61119;BME280;51448;51.660;5.824;2024-01-30T03:42:03;102462.16;;;7.52;98.68
61119;BME280;51448;51.660;5.824;2024-01-30T03:44:31;102462.97;;;7.52;98.61
61119;BME280;51448;51.660;5.824;2024-01-30T03:47:00;102462.72;;;7.54;98.65
61119;BME280;51448;51.660;5.824;2024-01-30T03:49:27;102460.78;;;7.54;98.43
61119;BME280;51448;51.660;5.824;2024-01-30T03:51:55;102455.31;;;7.54;98.54
61119;BME280;51448;51.660;5.824;2024-01-30T03:54:23;102458.06;;;7.54;98.43
61119;BME280;51448;51.660;5.824;2024-01-30T03:56:50;102459.97;;;7.54;98.76
61119;BME280;51448;51.660;5.824;2024-01-30T03:59:18;102461.63;;;7.55;98.58
61119;BME280;51448;51.660;5.824;2024-01-30T04:01:51;102461.38;;;7.56;98.61
61119;BME280;51448;51.660;5.824;2024-01-30T04:04:19;102456.94;;;7.55;98.93
61119;BME280;51448;51.660;5.824;2024-01-30T04:06:53;102470.44;;;7.57;98.63
61119;BME280;51448;51.660;5.824;2024-01-30T04:09:21;102465.78;;;7.57;98.55
61119;BME280;51448;51.660;5.824;2024-01-30T04:11:50;102470.19;;;7.58;98.61
61119;BME280;51448;51.660;5.824;2024-01-30T04:14:18;102463.59;;;7.59;98.51
61119;BME280;51448;51.660;5.824;2024-01-30T04:16:45;102474.31;;;7.61;98.47
61119;BME280;51448;51.660;5.824;2024-01-30T04:19:15;102473.25;;;7.62;98.64
61119;BME280;51448;51.660;5.824;2024-01-30T04:21:43;102472.72;;;7.65;98.49
61119;BME280;51448;51.660;5.824;2024-01-30T04:24:10;102473.88;;;7.69;98.50
61119;BME280;51448;51.660;5.824;2024-01-30T04:26:38;102469.50;;;7.73;98.38
61119;BME280;51448;51.660;5.824;2024-01-30T04:29:06;102471.72;;;7.76;98.47
61119;BME280;51448;51.660;5.824;2024-01-30T04:31:36;102467.63;;;7.79;98.40
61119;BME280;51448;51.660;5.824;2024-01-30T04:34:04;102462.97;;;7.79;98.38
61119;BME280;51448;51.660;5.824;2024-01-30T04:36:31;102466.28;;;7.81;98.35
61119;BME280;51448;51.660;5.824;2024-01-30T04:39:00;102459.13;;;7.80;98.41
61119;BME280;51448;51.660;5.824;2024-01-30T04:41:27;102452.81;;;7.80;98.22
61119;BME280;51448;51.660;5.824;2024-01-30T04:43:58;102464.13;;;7.83;98.27
61119;BME280;51448;51.660;5.824;2024-01-30T04:46:27;102462.44;;;7.82;98.30
61119;BME280;51448;51.660;5.824;2024-01-30T04:48:55;102458.63;;;7.83;98.24
61119;BME280;51448;51.660;5.824;2024-01-30T04:51:26;102460.28;;;7.84;98.40
61119;BME280;51448;51.660;5.824;2024-01-30T04:53:54;102452.84;;;7.85;98.35
61119;BME280;51448;51.660;5.824;2024-01-30T04:56:21;102447.09;;;7.86;98.17
61119;BME280;51448;51.660;5.824;2024-01-30T04:58:49;102444.91;;;7.88;98.40
61119;BME280;51448;51.660;5.824;2024-01-30T05:01:17;102439.97;;;7.90;98.37
61119;BME280;51448;51.660;5.824;2024-01-30T05:03:45;102444.38;;;7.91;98.30
61119;BME280;51448;51.660;5.824;2024-01-30T05:06:23;102447.69;;;7.94;98.23
61119;BME280;51448;51.660;5.824;2024-01-30T05:08:55;102437.53;;;7.94;98.29
61119;BME280;51448;51.660;5.824;2024-01-30T05:11:29;102443.03;;;7.94;98.07
61119;BME280;51448;51.660;5.824;2024-01-30T05:13:57;102423.53;;;7.96;98.23
61119;BME280;51448;51.660;5.824;2024-01-30T05:16:25;102429.84;;;7.96;98.27
61119;BME280;51448;51.660;5.824;2024-01-30T05:18:53;102432.09;;;7.99;98.51
61119;BME280;51448;51.660;5.824;2024-01-30T05:21:21;102437.88;;;8.03;98.47
61119;BME280;51448;51.660;5.824;2024-01-30T05:23:49;102430.22;;;8.05;98.38
61119;BME280;51448;51.660;5.824;2024-01-30T05:26:17;102430.50;;;8.08;98.70
61119;BME280;51448;51.660;5.824;2024-01-30T05:28:45;102438.47;;;8.10;98.50
61119;BME280;51448;51.660;5.824;2024-01-30T05:31:14;102444.53;;;8.12;98.44
61119;BME280;51448;51.660;5.824;2024-01-30T05:33:41;102443.44;;;8.13;98.65
61119;BME280;51448;51.660;5.824;2024-01-30T05:36:12;102452.53;;;8.13;98.60
61119;BME280;51448;51.660;5.824;2024-01-30T05:38:40;102446.50;;;8.16;98.94
61119;BME280;51448;51.660;5.824;2024-01-30T05:41:08;102449.31;;;8.22;98.83
61119;BME280;51448;51.660;5.824;2024-01-30T05:43:36;102447.41;;;8.27;99.00
61119;BME280;51448;51.660;5.824;2024-01-30T05:46:11;102447.44;;;8.32;98.89
61119;BME280;51448;51.660;5.824;2024-01-30T05:48:39;102443.66;;;8.38;98.79
61119;BME280;51448;51.660;5.824;2024-01-30T05:51:07;102436.53;;;8.42;98.84
61119;BME280;51448;51.660;5.824;2024-01-30T05:53:38;102442.31;;;8.46;98.87
61119;BME280;51448;51.660;5.824;2024-01-30T05:56:06;102449.47;;;8.47;98.63
61119;BME280;51448;51.660;5.824;2024-01-30T05:58:35;102442.06;;;8.48;98.54
61119;BME280;51448;51.660;5.824;2024-01-30T06:01:07;102440.16;;;8.48;98.53
61119;BME280;51448;51.660;5.824;2024-01-30T06:03:36;102442.91;;;8.48;98.35
61119;BME280;51448;51.660;5.824;2024-01-30T06:06:04;102450.06;;;8.49;98.51
61119;BME280;51448;51.660;5.824;2024-01-30T06:08:32;102445.94;;;8.52;98.47
61119;BME280;51448;51.660;5.824;2024-01-30T06:11:00;102440.16;;;8.53;98.33
61119;BME280;51448;51.660;5.824;2024-01-30T06:13:28;102444.84;;;8.53;98.41
61119;BME280;51448;51.660;5.824;2024-01-30T06:15:59;102442.66;;;8.55;98.46
61119;BME280;51448;51.660;5.824;2024-01-30T06:18:26;102443.22;;;8.57;98.22
61119;BME280;51448;51.660;5.824;2024-01-30T06:20:56;102439.91;;;8.55;98.09
61119;BME280;51448;51.660;5.824;2024-01-30T06:23:24;102441.00;;;8.54;98.16
61119;BME280;51448;51.660;5.824;2024-01-30T06:25:53;102442.34;;;8.51;98.06
61119;BME280;51448;51.660;5.824;2024-01-30T06:28:21;102443.47;;;8.50;98.27
61119;BME280;51448;51.660;5.824;2024-01-30T06:30:49;102444.81;;;8.48;98.31
61119;BME280;51448;51.660;5.824;2024-01-30T06:33:23;102453.91;;;8.48;98.49
61119;BME280;51448;51.660;5.824;2024-01-30T06:35:51;102449.25;;;8.49;98.53
61119;BME280;51448;51.660;5.824;2024-01-30T06:38:19;102452.53;;;8.51;98.39
61119;BME280;51448;51.660;5.824;2024-01-30T06:40:46;102449.78;;;8.51;98.44
61119;BME280;51448;51.660;5.824;2024-01-30T06:43:14;102448.69;;;8.52;98.35
61119;BME280;51448;51.660;5.824;2024-01-30T06:45:42;102448.69;;;8.52;98.41
61119;BME280;51448;51.660;5.824;2024-01-30T06:48:10;102452.25;;;8.52;98.33
61119;BME280;51448;51.660;5.824;2024-01-30T06:50:37;102461.34;;;8.53;98.43
61119;BME280;51448;51.660;5.824;2024-01-30T06:53:05;102462.16;;;8.53;98.48
61119;BME280;51448;51.660;5.824;2024-01-30T06:55:35;102456.66;;;8.53;98.51
61119;BME280;51448;51.660;5.824;2024-01-30T06:58:03;102461.94;;;8.55;98.40
61119;BME280;51448;51.660;5.824;2024-01-30T07:00:31;102460.28;;;8.54;98.37
61119;BME280;51448;51.660;5.824;2024-01-30T07:02:59;102465.78;;;8.54;98.43
61119;BME280;51448;51.660;5.824;2024-01-30T07:05:26;102469.34;;;8.54;98.46
61119;BME280;51448;51.660;5.824;2024-01-30T07:07:54;102483.94;;;8.55;98.52
61119;BME280;51448;51.660;5.824;2024-01-30T07:10:22;102479.25;;;8.55;98.41
61119;BME280;51448;51.660;5.824;2024-01-30T07:12:50;102477.34;;;8.56;98.66
61119;BME280;51448;51.660;5.824;2024-01-30T07:15:18;102480.09;;;8.56;98.54
61119;BME280;51448;51.660;5.824;2024-01-30T07:17:47;102481.19;;;8.55;98.50
61119;BME280;51448;51.660;5.824;2024-01-30T07:20:15;102481.44;;;8.53;98.48
61119;BME280;51448;51.660;5.824;2024-01-30T07:22:45;102489.97;;;8.52;98.58
61119;BME280;51448;51.660;5.824;2024-01-30T07:25:12;102497.38;;;8.51;98.65
61119;BME280;51448;51.660;5.824;2024-01-30T07:27:40;102494.63;;;8.51;98.75
61119;BME280;51448;51.660;5.824;2024-01-30T07:30:08;102496.88;;;8.54;98.68
61119;BME280;51448;51.660;5.824;2024-01-30T07:32:37;102503.75;;;8.57;98.61
61119;BME280;51448;51.660;5.824;2024-01-30T07:35:05;102507.06;;;8.59;99.12
61119;BME280;51448;51.660;5.824;2024-01-30T07:37:35;102513.13;;;8.61;99.35
61119;BME280;51448;51.660;5.824;2024-01-30T07:40:03;102504.34;;;8.64;99.34
61119;BME280;51448;51.660;5.824;2024-01-30T07:42:32;102500.78;;;8.68;99.52
61119;BME280;51448;51.660;5.824;2024-01-30T07:45:04;102507.44;;;8.73;99.25
61119;BME280;51448;51.660;5.824;2024-01-30T07:47:32;102510.22;;;8.78;99.48
61119;BME280;51448;51.660;5.824;2024-01-30T07:50:00;102506.94;;;8.81;99.57
61119;BME280;51448;51.660;5.824;2024-01-30T07:52:28;102495.94;;;8.86;99.41
61119;BME280;51448;51.660;5.824;2024-01-30T07:54:56;102501.75;;;8.89;99.61
61119;BME280;51448;51.660;5.824;2024-01-30T07:57:25;102497.91;;;8.95;99.83
61119;BME280;51448;51.660;5.824;2024-01-30T07:59:53;102510.06;;;9.00;99.38
61119;BME280;51448;51.660;5.824;2024-01-30T08:02:21;102521.63;;;9.02;99.45
61119;BME280;51448;51.660;5.824;2024-01-30T08:04:49;102527.16;;;9.07;99.31
61119;BME280;51448;51.660;5.824;2024-01-30T08:07:17;102522.22;;;9.09;99.37
61119;BME280;51448;51.660;5.824;2024-01-30T08:09:45;102532.44;;;9.13;99.11
61119;BME280;51448;51.660;5.824;2024-01-30T08:12:13;102528.84;;;9.18;99.15
61119;BME280;51448;51.660;5.824;2024-01-30T08:14:42;102530.25;;;9.20;98.94
61119;BME280;51448;51.660;5.824;2024-01-30T08:17:09;102526.94;;;9.23;99.14
61119;BME280;51448;51.660;5.824;2024-01-30T08:19:37;102529.72;;;9.29;99.24
61119;BME280;51448;51.660;5.824;2024-01-30T08:22:06;102536.38;;;9.33;99.26
61119;BME280;51448;51.660;5.824;2024-01-30T08:24:33;102528.94;;;9.38;99.31
61119;BME280;51448;51.660;5.824;2024-01-30T08:27:01;102526.22;;;9.43;99.35
61119;BME280;51448;51.660;5.824;2024-01-30T08:29:30;102532.28;;;9.51;99.34
61119;BME280;51448;51.660;5.824;2024-01-30T08:31:57;102530.38;;;9.56;98.74
61119;BME280;51448;51.660;5.824;2024-01-30T08:34:26;102531.22;;;9.62;98.91
61119;BME280;51448;51.660;5.824;2024-01-30T08:36:55;102522.13;;;9.66;98.75
61119;BME280;51448;51.660;5.824;2024-01-30T08:39:24;102522.16;;;9.71;98.68
61119;BME280;51448;51.660;5.824;2024-01-30T08:41:52;102526.84;;;9.76;98.66
61119;BME280;51448;51.660;5.824;2024-01-30T08:44:20;102529.63;;;9.81;98.51
61119;BME280;51448;51.660;5.824;2024-01-30T08:46:47;102518.59;;;9.86;98.13
61119;BME280;51448;51.660;5.824;2024-01-30T08:49:17;102533.22;;;9.92;98.29
61119;BME280;51448;51.660;5.824;2024-01-30T08:51:51;102528.81;;;9.96;97.97
61119;BME280;51448;51.660;5.824;2024-01-30T08:54:19;102526.31;;;9.99;97.76
61119;BME280;51448;51.660;5.824;2024-01-30T08:56:46;102528.53;;;10.02;97.88
61119;BME280;51448;51.660;5.824;2024-01-30T08:59:14;102528.84;;;10.06;97.83
61119;BME280;51448;51.660;5.824;2024-01-30T09:01:42;102526.63;;;10.08;98.11
61119;BME280;51448;51.660;5.824;2024-01-30T09:04:22;102528.56;;;10.13;97.75
61119;BME280;51448;51.660;5.824;2024-01-30T09:06:52;102525.81;;;10.18;97.58
61119;BME280;51448;51.660;5.824;2024-01-30T09:09:20;102534.34;;;10.21;97.31
61119;BME280;51448;51.660;5.824;2024-01-30T09:11:48;102533.81;;;10.24;97.43
61119;BME280;51448;51.660;5.824;2024-01-30T09:14:17;102532.44;;;10.27;97.26
61119;BME280;51448;51.660;5.824;2024-01-30T09:16:44;102536.31;;;10.31;97.51
61119;BME280;51448;51.660;5.824;2024-01-30T09:19:12;102534.66;;;10.35;97.27
61119;BME280;51448;51.660;5.824;2024-01-30T09:21:40;102529.41;;;10.39;97.10
61119;BME280;51448;51.660;5.824;2024-01-30T09:24:08;102541.28;;;10.44;96.92
61119;BME280;51448;51.660;5.824;2024-01-30T09:26:36;102543.75;;;10.46;96.90
61119;BME280;51448;51.660;5.824;2024-01-30T09:29:04;102544.28;;;10.48;96.97
61119;BME280;51448;51.660;5.824;2024-01-30T09:31:31;102552.88;;;10.51;96.81
61119;BME280;51448;51.660;5.824;2024-01-30T09:33:59;102550.38;;;10.55;96.82
61119;BME280;51448;51.660;5.824;2024-01-30T09:36:27;102553.97;;;10.56;96.90
61119;BME280;51448;51.660;5.824;2024-01-30T09:38:55;102560.03;;;10.58;96.78
61119;BME280;51448;51.660;5.824;2024-01-30T09:41:24;102559.75;;;10.59;96.85
61119;BME280;51448;51.660;5.824;2024-01-30T09:43:53;102562.25;;;10.61;97.19
61119;BME280;51448;51.660;5.824;2024-01-30T09:46:26;102558.09;;;10.63;97.20
61119;BME280;51448;51.660;5.824;2024-01-30T09:48:56;102553.41;;;10.64;96.87
61119;BME280;51448;51.660;5.824;2024-01-30T09:51:27;102551.19;;;10.66;97.23
61119;BME280;51448;51.660;5.824;2024-01-30T09:53:57;102557.81;;;10.70;97.08
61119;BME280;51448;51.660;5.824;2024-01-30T09:56:25;102558.91;;;10.74;96.86
61119;BME280;51448;51.660;5.824;2024-01-30T09:58:54;102556.69;;;10.76;96.84
61119;BME280;51448;51.660;5.824;2024-01-30T10:01:22;102570.78;;;10.79;96.72
61119;BME280;51448;51.660;5.824;2024-01-30T10:03:50;102560.00;;;10.83;96.91
61119;BME280;51448;51.660;5.824;2024-01-30T10:06:20;102561.66;;;10.84;96.81
61119;BME280;51448;51.660;5.824;2024-01-30T10:08:51;102559.44;;;10.86;96.62
61119;BME280;51448;51.660;5.824;2024-01-30T10:11:19;102556.13;;;10.89;96.61
61119;BME280;51448;51.660;5.824;2024-01-30T10:13:47;102560.00;;;10.88;96.66
61119;BME280;51448;51.660;5.824;2024-01-30T10:16:14;102561.06;;;10.92;96.86
61119;BME280;51448;51.660;5.824;2024-01-30T10:18:51;102572.09;;;10.97;96.99
61119;BME280;51448;51.660;5.824;2024-01-30T10:21:19;102566.56;;;11.02;97.36
61119;BME280;51448;51.660;5.824;2024-01-30T10:23:46;102562.69;;;11.09;96.54
61119;BME280;51448;51.660;5.824;2024-01-30T10:26:16;102564.38;;;11.10;96.67
61119;BME280;51448;51.660;5.824;2024-01-30T10:28:44;102562.97;;;11.12;96.67
61119;BME280;51448;51.660;5.824;2024-01-30T10:31:16;102566.53;;;11.18;96.48
61119;BME280;51448;51.660;5.824;2024-01-30T10:33:45;102568.75;;;11.21;96.53
61119;BME280;51448;51.660;5.824;2024-01-30T10:36:14;102576.47;;;11.24;96.59
61119;BME280;51448;51.660;5.824;2024-01-30T10:38:51;102578.38;;;11.28;96.68
61119;BME280;51448;51.660;5.824;2024-01-30T10:41:27;102580.31;;;11.33;96.26
61119;BME280;51448;51.660;5.824;2024-01-30T10:44:08;102575.06;;;11.37;96.27
61119;BME280;51448;51.660;5.824;2024-01-30T10:46:38;102573.38;;;11.36;96.09
61119;BME280;51448;51.660;5.824;2024-01-30T10:49:07;102579.72;;;11.36;96.21
61119;BME280;51448;51.660;5.824;2024-01-30T10:51:36;102579.16;;;11.39;96.24
61119;BME280;51448;51.660;5.824;2024-01-30T10:54:06;102578.63;;;11.42;96.37
61119;BME280;51448;51.660;5.824;2024-01-30T10:56:36;102574.16;;;11.46;96.61
61119;BME280;51448;51.660;5.824;2024-01-30T10:59:05;102570.53;;;11.51;96.62
61119;BME280;51448;51.660;5.824;2024-01-30T11:01:36;102572.75;;;11.59;96.53
61119;BME280;51448;51.660;5.824;2024-01-30T11:04:04;102584.59;;;11.65;96.67
61119;BME280;51448;51.660;5.824;2024-01-30T11:06:40;102572.41;;;11.71;96.55
61119;BME280;51448;51.660;5.824;2024-01-30T11:09:11;102570.97;;;11.78;96.08
61119;BME280;51448;51.660;5.824;2024-01-30T11:12:11;102573.72;;;11.83;95.94
61119;BME280;51448;51.660;5.824;2024-01-30T11:14:39;102576.19;;;11.85;95.93
61119;BME280;51448;51.660;5.824;2024-01-30T11:17:09;102572.88;;;11.88;95.75
61119;BME280;51448;51.660;5.824;2024-01-30T11:19:41;102569.56;;;11.91;95.44
61119;BME280;51448;51.660;5.824;2024-01-30T11:22:10;102571.16;;;11.97;95.01
61119;BME280;51448;51.660;5.824;2024-01-30T11:24:40;102576.09;;;12.00;95.19
61119;BME280;51448;51.660;5.824;2024-01-30T11:27:10;102583.56;;;12.05;94.93
61119;BME280;51448;51.660;5.824;2024-01-30T11:29:40;102583.00;;;12.08;94.78
61119;BME280;51448;51.660;5.824;2024-01-30T11:32:07;102572.72;;;12.14;94.67
61119;BME280;51448;51.660;5.824;2024-01-30T11:34:40;102574.88;;;12.17;94.16
61119;BME280;51448;51.660;5.824;2024-01-30T11:37:10;102564.94;;;12.16;94.23
61119;BME280;51448;51.660;5.824;2024-01-30T11:39:41;102574.06;;;12.16;93.93
61119;BME280;51448;51.660;5.824;2024-01-30T11:42:11;102563.28;;;12.15;93.87
61119;BME280;51448;51.660;5.824;2024-01-30T11:44:38;102556.94;;;12.14;94.14
61119;BME280;51448;51.660;5.824;2024-01-30T11:47:06;102568.81;;;12.15;94.12
61119;BME280;51448;51.660;5.824;2024-01-30T11:49:35;102561.59;;;12.19;93.84
61119;BME280;51448;51.660;5.824;2024-01-30T11:52:04;102570.44;;;12.21;93.80
61119;BME280;51448;51.660;5.824;2024-01-30T11:54:32;102573.47;;;12.24;93.35
61119;BME280;51448;51.660;5.824;2024-01-30T11:57:00;102579.53;;;12.26;93.51
61119;BME280;51448;51.660;5.824;2024-01-30T11:59:28;102573.69;;;12.28;93.37
61119;BME280;51448;51.660;5.824;2024-01-30T12:01:55;102579.50;;;12.31;93.15
61119;BME280;51448;51.660;5.824;2024-01-30T12:04:28;102569.22;;;12.37;93.00
61119;BME280;51448;51.660;5.824;2024-01-30T12:06:57;102578.59;;;12.41;92.29
61119;BME280;51448;51.660;5.824;2024-01-30T12:09:27;102579.69;;;12.45;90.73
61119;BME280;51448;51.660;5.824;2024-01-30T12:11:56;102572.47;;;12.44;90.74
61119;BME280;51448;51.660;5.824;2024-01-30T12:14:24;102574.13;;;12.45;90.55
61119;BME280;51448;51.660;5.824;2024-01-30T12:16:52;102582.97;;;12.47;90.21
61119;BME280;51448;51.660;5.824;2024-01-30T12:19:24;102584.63;;;12.48;88.76
61119;BME280;51448;51.660;5.824;2024-01-30T12:21:56;102574.66;;;12.47;88.32
61119;BME280;51448;51.660;5.824;2024-01-30T12:24:29;102580.50;;;12.46;88.04
61119;BME280;51448;51.660;5.824;2024-01-30T12:27:00;102581.88;;;12.43;86.53
61119;BME280;51448;51.660;5.824;2024-01-30T12:29:32;102578.59;;;12.41;85.75
61119;BME280;51448;51.660;5.824;2024-01-30T12:32:04;102589.72;;;12.36;85.10
61119;BME280;51448;51.660;5.824;2024-01-30T12:34:32;102589.16;;;12.34;84.73
61119;BME280;51448;51.660;5.824;2024-01-30T12:37:12;102593.03;;;12.33;84.52
61119;BME280;51448;51.660;5.824;2024-01-30T12:39:43;102596.94;;;12.32;83.71
61119;BME280;51448;51.660;5.824;2024-01-30T12:42:10;102588.31;;;12.33;82.85
61119;BME280;51448;51.660;5.824;2024-01-30T12:44:38;102601.94;;;12.30;83.19
61119;BME280;51448;51.660;5.824;2024-01-30T12:47:08;102608.00;;;12.32;83.02
61119;BME280;51448;51.660;5.824;2024-01-30T12:49:36;102613.28;;;12.28;82.62
61119;BME280;51448;51.660;5.824;2024-01-30T12:52:04;102595.31;;;12.26;81.02
61119;BME280;51448;51.660;5.824;2024-01-30T12:54:32;102598.94;;;12.21;80.52
61119;BME280;51448;51.660;5.824;2024-01-30T12:57:00;102605.34;;;12.17;80.33
61119;BME280;51448;51.660;5.824;2024-01-30T12:59:27;102613.94;;;12.15;79.06
61119;BME280;51448;51.660;5.824;2024-01-30T13:01:55;102609.25;;;12.10;79.55
61119;BME280;51448;51.660;5.824;2024-01-30T13:04:23;102609.81;;;12.13;79.06
61119;BME280;51448;51.660;5.824;2024-01-30T13:06:51;102628.28;;;12.17;78.94